sensor_id;sensor_type;location;lat;lon;timestamp;pressure;altitude;pressure_sealevel;temperature;humidity
29941;BME280;16801;53.562;10.038;2024-01-07T00:02:54;102073.19;;;0.24;100.00
29941;BME280;16801;53.562;10.038;2024-01-07T00:06:15;102072.41;;;0.19;100.00
29941;BME280;16801;53.562;10.038;2024-01-07T00:09:36;102080.69;;;0.07;100.00
29941;BME280;16801;53.562;10.038;2024-01-07T00:12:57;102078.28;;;-0.01;100.00
29941;BME280;16801;53.562;10.038;2024-01-07T00:16:20;102086.22;;;-0.01;100.00
29941;BME280;16801;53.562;10.038;2024-01-07T00:19:41;102085.50;;;-0.07;100.00
29941;BME280;16801;53.562;10.038;2024-01-07T00:23:02;102089.09;;;-0.10;100.00
29941;BME280;16801;53.562;10.038;2024-01-07T00:26:23;102099.91;;;-0.17;100.00
29941;BME280;16801;53.562;10.038;2024-01-07T00:29:44;102098.34;;;-0.26;100.00
29941;BME280;16801;53.562;10.038;2024-01-07T00:33:06;102105.41;;;-0.26;100.00
29941;BME280;16801;53.562;10.038;2024-01-07T00:36:27;102103.50;;;-0.20;100.00
29941;BME280;16801;53.562;10.038;2024-01-07T00:39:48;102107.38;;;-0.34;100.00
29941;BME280;16801;53.562;10.038;2024-01-07T00:43:09;102108.91;;;-0.24;100.00
29941;BME280;16801;53.562;10.038;2024-01-07T00:46:30;102116.78;;;-0.23;100.00
29941;BME280;16801;53.562;10.038;2024-01-07T00:49:52;102115.03;;;-0.22;100.00
29941;BME280;16801;53.562;10.038;2024-01-07T00:53:13;102122.75;;;-0.13;100.00
29941;BME280;16801;53.562;10.038;2024-01-07T00:56:34;102121.19;;;-0.22;100.00
29941;BME280;16801;53.562;10.038;2024-01-07T00:59:55;102124.06;;;-0.31;100.00
29941;BME280;16801;53.562;10.038;2024-01-07T01:03:16;102136.16;;;-0.21;100.00
29941;BME280;16801;53.562;10.038;2024-01-07T01:06:39;102131.44;;;-0.08;100.00
29941;BME280;16801;53.562;10.038;2024-01-07T01:10:00;102141.31;;;-0.15;100.00
29941;BME280;16801;53.562;10.038;2024-01-07T01:13:20;102141.72;;;-0.30;100.00
29941;BME280;16801;53.562;10.038;2024-01-07T01:16:41;102151.63;;;-0.39;100.00
29941;BME280;16801;53.562;10.038;2024-01-07T01:20:03;102159.56;;;-0.38;100.00
29941;BME280;16801;53.562;10.038;2024-01-07T01:23:25;102163.84;;;-0.32;100.00
29941;BME280;16801;53.562;10.038;2024-01-07T01:26:46;102166.50;;;-0.32;100.00
29941;BME280;16801;53.562;10.038;2024-01-07T01:30:08;102168.25;;;-0.33;100.00
29941;BME280;16801;53.562;10.038;2024-01-07T01:33:29;102171.94;;;-0.38;100.00
29941;BME280;16801;53.562;10.038;2024-01-07T01:36:50;102184.19;;;-0.34;100.00
29941;BME280;16801;53.562;10.038;2024-01-07T01:40:13;102181.59;;;-0.36;100.00
29941;BME280;16801;53.562;10.038;2024-01-07T01:43:34;102191.13;;;-0.29;100.00
29941;BME280;16801;53.562;10.038;2024-01-07T01:46:55;102183.47;;;-0.41;100.00
29941;BME280;16801;53.562;10.038;2024-01-07T01:50:16;102194.00;;;-0.39;100.00
29941;BME280;16801;53.562;10.038;2024-01-07T01:53:37;102193.88;;;-0.33;100.00
29941;BME280;16801;53.562;10.038;2024-01-07T01:57:00;102203.81;;;-0.43;100.00
29941;BME280;16801;53.562;10.038;2024-01-07T02:00:21;102208.06;;;-0.36;100.00
29941;BME280;16801;53.562;10.038;2024-01-07T02:03:42;102216.81;;;-0.32;100.00
29941;BME280;16801;53.562;10.038;2024-01-07T02:07:03;102208.97;;;-0.37;100.00
29941;BME280;16801;53.562;10.038;2024-01-07T02:10:24;102218.69;;;-0.37;100.00
29941;BME280;16801;53.562;10.038;2024-01-07T02:13:46;102222.16;;;-0.34;100.00
29941;BME280;16801;53.562;10.038;2024-01-07T02:17:07;102215.75;;;-0.24;100.00
29941;BME280;16801;53.562;10.038;2024-01-07T02:20:28;102220.81;;;-0.15;100.00
29941;BME280;16801;53.562;10.038;2024-01-07T02:23:49;102223.41;;;-0.12;100.00
29941;BME280;16801;53.562;10.038;2024-01-07T02:27:11;102229.44;;;-0.05;100.00
29941;BME280;16801;53.562;10.038;2024-01-07T02:30:32;102232.97;;;-0.05;100.00
29941;BME280;16801;53.562;10.038;2024-01-07T02:33:54;102235.53;;;-0.02;100.00
29941;BME280;16801;53.562;10.038;2024-01-07T02:37:15;102234.44;;;0.07;100.00
29941;BME280;16801;53.562;10.038;2024-01-07T02:40:36;102234.38;;;0.10;100.00
29941;BME280;16801;53.562;10.038;2024-01-07T02:43:58;102240.63;;;0.08;100.00
29941;BME280;16801;53.562;10.038;2024-01-07T02:47:19;102245.97;;;0.06;100.00
29941;BME280;16801;53.562;10.038;2024-01-07T02:50:40;102246.84;;;0.05;100.00
29941;BME280;16801;53.562;10.038;2024-01-07T02:54:02;102247.31;;;-0.15;100.00
29941;BME280;16801;53.562;10.038;2024-01-07T02:57:24;102251.16;;;-0.29;100.00
29941;BME280;16801;53.562;10.038;2024-01-07T03:00:46;102250.78;;;-0.11;100.00
29941;BME280;16801;53.562;10.038;2024-01-07T03:04:09;102255.63;;;0.07;100.00
29941;BME280;16801;53.562;10.038;2024-01-07T03:07:30;102262.72;;;0.07;100.00
29941;BME280;16801;53.562;10.038;2024-01-07T03:10:51;102260.63;;;0.19;100.00
29941;BME280;16801;53.562;10.038;2024-01-07T03:14:12;102262.56;;;0.13;100.00
29941;BME280;16801;53.562;10.038;2024-01-07T03:17:37;102269.38;;;0.24;100.00
29941;BME280;16801;53.562;10.038;2024-01-07T03:20:58;102264.16;;;0.20;100.00
29941;BME280;16801;53.562;10.038;2024-01-07T03:24:19;102274.78;;;0.20;100.00
29941;BME280;16801;53.562;10.038;2024-01-07T03:27:40;102269.41;;;0.23;100.00
29941;BME280;16801;53.562;10.038;2024-01-07T03:31:04;102274.72;;;0.21;100.00
29941;BME280;16801;53.562;10.038;2024-01-07T03:34:26;102272.66;;;0.34;100.00
29941;BME280;16801;53.562;10.038;2024-01-07T03:37:47;102278.06;;;0.31;100.00
29941;BME280;16801;53.562;10.038;2024-01-07T03:41:08;102285.66;;;0.46;100.00
29941;BME280;16801;53.562;10.038;2024-01-07T03:44:29;102281.34;;;0.40;100.00
29941;BME280;16801;53.562;10.038;2024-01-07T03:47:50;102289.59;;;0.28;100.00
29941;BME280;16801;53.562;10.038;2024-01-07T03:51:12;102291.94;;;0.40;100.00
29941;BME280;16801;53.562;10.038;2024-01-07T03:54:33;102290.13;;;0.44;100.00
29941;BME280;16801;53.562;10.038;2024-01-07T03:57:54;102306.63;;;0.55;100.00
29941;BME280;16801;53.562;10.038;2024-01-07T04:01:16;102313.06;;;0.45;100.00
29941;BME280;16801;53.562;10.038;2024-01-07T04:04:37;102317.41;;;0.47;100.00
29941;BME280;16801;53.562;10.038;2024-01-07T04:08:00;102309.31;;;0.53;100.00
29941;BME280;16801;53.562;10.038;2024-01-07T04:11:21;102318.22;;;0.51;100.00
29941;BME280;16801;53.562;10.038;2024-01-07T04:14:42;102326.84;;;0.60;100.00
29941;BME280;16801;53.562;10.038;2024-01-07T04:18:04;102327.78;;;0.58;100.00
29941;BME280;16801;53.562;10.038;2024-01-07T04:21:25;102331.47;;;0.51;100.00
29941;BME280;16801;53.562;10.038;2024-01-07T04:24:47;102334.13;;;0.51;100.00
29941;BME280;16801;53.562;10.038;2024-01-07T04:28:08;102342.72;;;0.62;100.00
29941;BME280;16801;53.562;10.038;2024-01-07T04:31:29;102338.34;;;0.59;100.00
29941;BME280;16801;53.562;10.038;2024-01-07T04:34:50;102348.47;;;0.42;100.00
29941;BME280;16801;53.562;10.038;2024-01-07T04:38:11;102352.69;;;0.51;100.00
29941;BME280;16801;53.562;10.038;2024-01-07T04:41:33;102340.38;;;0.48;100.00
29941;BME280;16801;53.562;10.038;2024-01-07T04:44:53;102348.91;;;0.61;100.00
29941;BME280;16801;53.562;10.038;2024-01-07T04:48:14;102338.97;;;0.69;100.00
29941;BME280;16801;53.562;10.038;2024-01-07T04:51:35;102341.91;;;0.58;100.00
29941;BME280;16801;53.562;10.038;2024-01-07T04:54:56;102353.28;;;0.63;100.00
29941;BME280;16801;53.562;10.038;2024-01-07T04:58:20;102343.38;;;0.70;100.00
29941;BME280;16801;53.562;10.038;2024-01-07T05:01:42;102352.13;;;0.73;100.00
29941;BME280;16801;53.562;10.038;2024-01-07T05:05:04;102355.72;;;0.71;100.00
29941;BME280;16801;53.562;10.038;2024-01-07T05:08:26;102354.63;;;0.81;100.00
29941;BME280;16801;53.562;10.038;2024-01-07T05:11:47;102351.41;;;0.67;100.00
29941;BME280;16801;53.562;10.038;2024-01-07T05:15:09;102367.31;;;0.67;100.00
29941;BME280;16801;53.562;10.038;2024-01-07T05:18:31;102367.56;;;0.56;100.00
29941;BME280;16801;53.562;10.038;2024-01-07T05:21:53;102364.63;;;0.70;100.00
29941;BME280;16801;53.562;10.038;2024-01-07T05:25:14;102367.28;;;0.70;100.00
29941;BME280;16801;53.562;10.038;2024-01-07T05:28:36;102369.78;;;0.76;100.00
29941;BME280;16801;53.562;10.038;2024-01-07T05:31:58;102377.00;;;0.69;100.00
29941;BME280;16801;53.562;10.038;2024-01-07T05:35:20;102375.22;;;0.70;100.00
29941;BME280;16801;53.562;10.038;2024-01-07T05:38:41;102377.88;;;0.70;100.00
29941;BME280;16801;53.562;10.038;2024-01-07T05:42:03;102384.78;;;0.77;100.00
29941;BME280;16801;53.562;10.038;2024-01-07T05:45:23;102386.25;;;0.89;100.00
29941;BME280;16801;53.562;10.038;2024-01-07T05:48:47;102397.44;;;1.01;100.00
29941;BME280;16801;53.562;10.038;2024-01-07T05:52:08;102400.97;;;1.02;100.00
29941;BME280;16801;53.562;10.038;2024-01-07T05:55:29;102399.88;;;1.10;100.00
29941;BME280;16801;53.562;10.038;2024-01-07T05:58:50;102406.66;;;1.22;100.00
29941;BME280;16801;53.562;10.038;2024-01-07T06:02:11;102409.34;;;1.20;100.00
29941;BME280;16801;53.562;10.038;2024-01-07T06:05:34;102407.69;;;1.16;100.00
29941;BME280;16801;53.562;10.038;2024-01-07T06:08:54;102412.88;;;1.21;100.00
29941;BME280;16801;53.562;10.038;2024-01-07T06:12:15;102427.91;;;1.22;100.00
29941;BME280;16801;53.562;10.038;2024-01-07T06:15:36;102418.94;;;1.26;100.00
29941;BME280;16801;53.562;10.038;2024-01-07T06:18:57;102425.97;;;1.28;100.00
29941;BME280;16801;53.562;10.038;2024-01-07T06:22:19;102430.06;;;1.41;100.00
29941;BME280;16801;53.562;10.038;2024-01-07T06:25:40;102435.25;;;1.44;100.00
29941;BME280;16801;53.562;10.038;2024-01-07T06:29:01;102437.19;;;1.39;100.00
29941;BME280;16801;53.562;10.038;2024-01-07T06:32:22;102433.16;;;1.23;100.00
29941;BME280;16801;53.562;10.038;2024-01-07T06:35:44;102428.78;;;1.22;100.00
29941;BME280;16801;53.562;10.038;2024-01-07T06:39:07;102418.03;;;1.27;100.00
29941;BME280;16801;53.562;10.038;2024-01-07T06:42:27;102439.28;;;1.27;100.00
29941;BME280;16801;53.562;10.038;2024-01-07T06:45:48;102451.84;;;1.20;100.00
29941;BME280;16801;53.562;10.038;2024-01-07T06:49:09;102453.16;;;1.03;100.00
29941;BME280;16801;53.562;10.038;2024-01-07T06:52:30;102459.28;;;1.05;100.00
29941;BME280;16801;53.562;10.038;2024-01-07T06:55:53;102468.91;;;1.10;100.00
29941;BME280;16801;53.562;10.038;2024-01-07T06:59:14;102469.81;;;1.09;100.00
29941;BME280;16801;53.562;10.038;2024-01-07T07:02:35;102476.84;;;1.12;100.00
29941;BME280;16801;53.562;10.038;2024-01-07T07:05:55;102485.84;;;1.05;100.00
29941;BME280;16801;53.562;10.038;2024-01-07T07:09:16;102491.00;;;1.12;100.00
29941;BME280;16801;53.562;10.038;2024-01-07T07:12:38;102494.38;;;1.19;100.00
29941;BME280;16801;53.562;10.038;2024-01-07T07:15:59;102501.69;;;1.09;100.00
29941;BME280;16801;53.562;10.038;2024-01-07T07:19:20;102499.94;;;1.08;100.00
29941;BME280;16801;53.562;10.038;2024-01-07T07:22:41;102495.72;;;0.98;100.00
29941;BME280;16801;53.562;10.038;2024-01-07T07:26:02;102511.47;;;1.07;100.00
29941;BME280;16801;53.562;10.038;2024-01-07T07:29:24;102512.16;;;1.15;100.00
29941;BME280;16801;53.562;10.038;2024-01-07T07:32:45;102523.53;;;1.20;100.00
29941;BME280;16801;53.562;10.038;2024-01-07T07:36:07;102527.94;;;1.21;100.00
29941;BME280;16801;53.562;10.038;2024-01-07T07:39:28;102527.25;;;1.13;100.00
29941;BME280;16801;53.562;10.038;2024-01-07T07:42:49;102541.41;;;1.14;100.00
29941;BME280;16801;53.562;10.038;2024-01-07T07:46:11;102532.66;;;1.09;100.00
29941;BME280;16801;53.562;10.038;2024-01-07T07:49:32;102540.88;;;0.98;100.00
29941;BME280;16801;53.562;10.038;2024-01-07T07:52:53;102548.44;;;0.76;100.00
29941;BME280;16801;53.562;10.038;2024-01-07T07:56:14;102558.97;;;0.79;100.00
29941;BME280;16801;53.562;10.038;2024-01-07T07:59:35;102553.75;;;0.76;100.00
29941;BME280;16801;53.562;10.038;2024-01-07T08:02:58;102555.34;;;0.85;100.00
29941;BME280;16801;53.562;10.038;2024-01-07T08:06:19;102568.75;;;0.79;100.00
29941;BME280;16801;53.562;10.038;2024-01-07T08:09:40;102574.94;;;0.78;100.00
29941;BME280;16801;53.562;10.038;2024-01-07T08:13:01;102583.03;;;0.72;100.00
29941;BME280;16801;53.562;10.038;2024-01-07T08:16:22;102586.63;;;0.69;100.00
29941;BME280;16801;53.562;10.038;2024-01-07T08:19:44;102586.66;;;0.68;100.00
29941;BME280;16801;53.562;10.038;2024-01-07T08:23:05;102592.09;;;0.62;100.00
29941;BME280;16801;53.562;10.038;2024-01-07T08:26:27;102585.47;;;0.82;100.00
29941;BME280;16801;53.562;10.038;2024-01-07T08:29:48;102591.66;;;0.81;100.00
29941;BME280;16801;53.562;10.038;2024-01-07T08:33:09;102597.44;;;1.00;100.00
29941;BME280;16801;53.562;10.038;2024-01-07T08:36:31;102593.06;;;1.74;100.00
29941;BME280;16801;53.562;10.038;2024-01-07T08:39:52;102595.91;;;2.34;100.00
29941;BME280;16801;53.562;10.038;2024-01-07T08:43:13;102596.44;;;2.47;100.00
29941;BME280;16801;53.562;10.038;2024-01-07T08:46:34;102611.97;;;1.97;100.00
29941;BME280;16801;53.562;10.038;2024-01-07T08:49:55;102615.09;;;1.79;100.00
29941;BME280;16801;53.562;10.038;2024-01-07T08:53:17;102612.81;;;1.99;100.00
29941;BME280;16801;53.562;10.038;2024-01-07T08:56:39;102624.03;;;2.75;100.00
29941;BME280;16801;53.562;10.038;2024-01-07T09:00:00;102620.44;;;4.90;100.00
29941;BME280;16801;53.562;10.038;2024-01-07T09:03:22;102626.16;;;5.48;100.00
29941;BME280;16801;53.562;10.038;2024-01-07T09:06:43;102612.56;;;6.97;100.00
29941;BME280;16801;53.562;10.038;2024-01-07T09:10:06;102611.84;;;7.49;100.00
29941;BME280;16801;53.562;10.038;2024-01-07T09:13:29;102619.69;;;7.35;100.00
29941;BME280;16801;53.562;10.038;2024-01-07T09:16:50;102614.28;;;9.09;100.00
29941;BME280;16801;53.562;10.038;2024-01-07T09:20:13;102609.78;;;10.33;89.90
29941;BME280;16801;53.562;10.038;2024-01-07T09:23:33;102622.19;;;9.90;83.60
29941;BME280;16801;53.562;10.038;2024-01-07T09:26:57;102610.88;;;11.57;79.75
29941;BME280;16801;53.562;10.038;2024-01-07T09:30:18;102613.59;;;12.50;71.44
29941;BME280;16801;53.562;10.038;2024-01-07T09:33:39;102622.56;;;11.44;65.68
29941;BME280;16801;53.562;10.038;2024-01-07T09:37:00;102629.47;;;10.19;70.47
29941;BME280;16801;53.562;10.038;2024-01-07T09:40:21;102642.16;;;7.14;76.42
29941;BME280;16801;53.562;10.038;2024-01-07T09:43:43;102644.84;;;7.14;85.54
29941;BME280;16801;53.562;10.038;2024-01-07T09:47:05;102637.72;;;10.32;74.02
29941;BME280;16801;53.562;10.038;2024-01-07T09:50:28;102637.91;;;10.87;67.41
29941;BME280;16801;53.562;10.038;2024-01-07T09:53:53;102650.00;;;7.56;74.30
29941;BME280;16801;53.562;10.038;2024-01-07T09:57:17;102656.53;;;5.91;83.18
29941;BME280;16801;53.562;10.038;2024-01-07T10:00:40;102655.72;;;4.74;90.80
29941;BME280;16801;53.562;10.038;2024-01-07T10:04:00;102656.53;;;4.27;96.42
29941;BME280;16801;53.562;10.038;2024-01-07T10:07:21;102656.72;;;3.67;100.00
29941;BME280;16801;53.562;10.038;2024-01-07T10:10:42;102666.00;;;3.56;100.00
29941;BME280;16801;53.562;10.038;2024-01-07T10:14:04;102658.81;;;3.58;100.00
29941;BME280;16801;53.562;10.038;2024-01-07T10:17:26;102669.25;;;3.36;100.00
29941;BME280;16801;53.562;10.038;2024-01-07T10:20:49;102661.56;;;3.25;100.00
29941;BME280;16801;53.562;10.038;2024-01-07T10:24:11;102664.75;;;3.38;100.00
29941;BME280;16801;53.562;10.038;2024-01-07T10:27:33;102663.91;;;4.93;100.00
29941;BME280;16801;53.562;10.038;2024-01-07T10:30:54;102661.19;;;6.49;100.00
29941;BME280;16801;53.562;10.038;2024-01-07T10:34:17;102673.19;;;5.76;100.00
29941;BME280;16801;53.562;10.038;2024-01-07T10:37:39;102660.38;;;7.63;96.87
29941;BME280;16801;53.562;10.038;2024-01-07T10:41:01;102665.16;;;7.57;100.00
29941;BME280;16801;53.562;10.038;2024-01-07T10:44:22;102664.00;;;7.44;99.47
29941;BME280;16801;53.562;10.038;2024-01-07T10:47:47;102664.31;;;5.97;94.86
29941;BME280;16801;53.562;10.038;2024-01-07T10:51:11;102668.03;;;6.36;100.00
29941;BME280;16801;53.562;10.038;2024-01-07T10:54:34;102672.47;;;5.49;99.31
29941;BME280;16801;53.562;10.038;2024-01-07T10:57:56;102670.97;;;5.42;98.36
29941;BME280;16801;53.562;10.038;2024-01-07T11:01:19;102670.38;;;4.63;99.15
29941;BME280;16801;53.562;10.038;2024-01-07T11:04:45;102679.78;;;5.67;100.00
29941;BME280;16801;53.562;10.038;2024-01-07T11:08:16;102674.03;;;7.40;100.00
29941;BME280;16801;53.562;10.038;2024-01-07T11:11:40;102683.28;;;5.91;100.00
29941;BME280;16801;53.562;10.038;2024-01-07T11:15:02;102680.91;;;4.92;100.00
29941;BME280;16801;53.562;10.038;2024-01-07T11:18:23;102687.66;;;4.27;100.00
29941;BME280;16801;53.562;10.038;2024-01-07T11:21:49;102687.81;;;3.96;100.00
29941;BME280;16801;53.562;10.038;2024-01-07T11:25:30;102695.81;;;3.39;100.00
29941;BME280;16801;53.562;10.038;2024-01-07T11:28:52;102687.78;;;3.41;100.00
29941;BME280;16801;53.562;10.038;2024-01-07T11:32:16;102683.31;;;3.96;100.00
29941;BME280;16801;53.562;10.038;2024-01-07T11:35:56;102667.78;;;7.40;100.00
29941;BME280;16801;53.562;10.038;2024-01-07T11:39:17;102681.09;;;6.84;89.86
29941;BME280;16801;53.562;10.038;2024-01-07T11:42:40;102691.41;;;5.66;92.03
29941;BME280;16801;53.562;10.038;2024-01-07T11:46:01;102682.75;;;6.66;89.76
29941;BME280;16801;53.562;10.038;2024-01-07T11:49:22;102681.41;;;5.94;91.03
29941;BME280;16801;53.562;10.038;2024-01-07T11:52:43;102693.31;;;6.07;89.61
29941;BME280;16801;53.562;10.038;2024-01-07T11:56:05;102691.19;;;5.49;90.77
29941;BME280;16801;53.562;10.038;2024-01-07T11:59:27;102684.44;;;7.83;89.93
29941;BME280;16801;53.562;10.038;2024-01-07T12:02:49;102683.28;;;7.52;81.34
29941;BME280;16801;53.562;10.038;2024-01-07T12:06:10;102669.00;;;10.34;76.12
29941;BME280;16801;53.562;10.038;2024-01-07T12:09:33;102664.75;;;11.87;68.11
29941;BME280;16801;53.562;10.038;2024-01-07T12:12:54;102668.09;;;13.95;55.91
29941;BME280;16801;53.562;10.038;2024-01-07T12:16:17;102663.41;;;13.97;49.05
29941;BME280;16801;53.562;10.038;2024-01-07T12:19:39;102675.91;;;14.47;47.61
29941;BME280;16801;53.562;10.038;2024-01-07T12:23:07;102685.28;;;13.83;47.54
29941;BME280;16801;53.562;10.038;2024-01-07T12:26:28;102674.22;;;13.24;46.63
29941;BME280;16801;53.562;10.038;2024-01-07T12:29:54;102677.25;;;11.05;55.74
29941;BME280;16801;53.562;10.038;2024-01-07T12:33:18;102672.75;;;11.05;56.32
29941;BME280;16801;53.562;10.038;2024-01-07T12:36:40;102682.69;;;10.45;57.49
29941;BME280;16801;53.562;10.038;2024-01-07T12:40:00;102674.34;;;10.05;58.83
29941;BME280;16801;53.562;10.038;2024-01-07T12:43:22;102673.97;;;8.66;64.67
29941;BME280;16801;53.562;10.038;2024-01-07T12:46:43;102674.38;;;8.75;66.77
29941;BME280;16801;53.562;10.038;2024-01-07T12:50:06;102683.75;;;7.97;68.44
29941;BME280;16801;53.562;10.038;2024-01-07T12:53:29;102687.84;;;6.32;75.71
29941;BME280;16801;53.562;10.038;2024-01-07T12:56:50;102694.31;;;7.64;75.05
29941;BME280;16801;53.562;10.038;2024-01-07T13:00:12;102685.34;;;8.01;73.28
29941;BME280;16801;53.562;10.038;2024-01-07T13:03:33;102688.22;;;7.23;73.80
29941;BME280;16801;53.562;10.038;2024-01-07T13:06:55;102699.31;;;5.69;80.65
29941;BME280;16801;53.562;10.038;2024-01-07T13:10:16;102706.53;;;4.73;85.04
29941;BME280;16801;53.562;10.038;2024-01-07T13:13:37;102712.31;;;3.81;89.23
29941;BME280;16801;53.562;10.038;2024-01-07T13:16:58;102723.69;;;3.29;93.48
29941;BME280;16801;53.562;10.038;2024-01-07T13:20:19;102724.34;;;3.05;95.21
29941;BME280;16801;53.562;10.038;2024-01-07T13:23:42;102732.09;;;2.82;96.80
29941;BME280;16801;53.562;10.038;2024-01-07T13:27:03;102729.44;;;2.50;98.04
29941;BME280;16801;53.562;10.038;2024-01-07T13:30:24;102735.22;;;3.30;98.35
29941;BME280;16801;53.562;10.038;2024-01-07T13:33:45;102727.81;;;4.50;92.73
29941;BME280;16801;53.562;10.038;2024-01-07T13:37:07;102738.56;;;4.48;89.66
29941;BME280;16801;53.562;10.038;2024-01-07T13:40:29;102734.44;;;4.64;87.28
29941;BME280;16801;53.562;10.038;2024-01-07T13:43:50;102746.94;;;4.36;85.63
29941;BME280;16801;53.562;10.038;2024-01-07T13:47:10;102746.06;;;3.53;86.89
29941;BME280;16801;53.562;10.038;2024-01-07T13:50:33;102757.91;;;3.12;88.66
29941;BME280;16801;53.562;10.038;2024-01-07T13:53:54;102753.38;;;3.15;88.87
29941;BME280;16801;53.562;10.038;2024-01-07T13:57:17;102763.59;;;2.66;90.02
29941;BME280;16801;53.562;10.038;2024-01-07T14:00:38;102760.72;;;2.40;92.00
29941;BME280;16801;53.562;10.038;2024-01-07T14:03:59;102763.94;;;2.17;92.55
29941;BME280;16801;53.562;10.038;2024-01-07T14:07:20;102766.59;;;1.81;94.07
29941;BME280;16801;53.562;10.038;2024-01-07T14:10:41;102765.00;;;1.72;95.76
29941;BME280;16801;53.562;10.038;2024-01-07T14:14:03;102762.53;;;1.63;96.49
29941;BME280;16801;53.562;10.038;2024-01-07T14:17:24;102768.97;;;1.53;95.86
29941;BME280;16801;53.562;10.038;2024-01-07T14:20:45;102771.69;;;1.48;95.64
29941;BME280;16801;53.562;10.038;2024-01-07T14:24:06;102780.84;;;1.35;96.30
29941;BME280;16801;53.562;10.038;2024-01-07T14:27:27;102789.22;;;1.16;96.30
29941;BME280;16801;53.562;10.038;2024-01-07T14:30:49;102786.66;;;1.10;98.32
29941;BME280;16801;53.562;10.038;2024-01-07T14:34:10;102788.88;;;0.87;99.08
29941;BME280;16801;53.562;10.038;2024-01-07T14:37:31;102800.22;;;0.95;100.00
29941;BME280;16801;53.562;10.038;2024-01-07T14:40:52;102798.72;;;0.80;100.00
29941;BME280;16801;53.562;10.038;2024-01-07T14:44:13;102797.09;;;0.71;100.00
29941;BME280;16801;53.562;10.038;2024-01-07T14:47:35;102803.19;;;0.78;100.00
29941;BME280;16801;53.562;10.038;2024-01-07T14:50:56;102805.91;;;0.73;100.00
29941;BME280;16801;53.562;10.038;2024-01-07T14:54:17;102814.78;;;0.71;100.00
29941;BME280;16801;53.562;10.038;2024-01-07T14:57:38;102814.91;;;0.66;100.00
29941;BME280;16801;53.562;10.038;2024-01-07T15:00:59;102819.50;;;0.55;100.00
29941;BME280;16801;53.562;10.038;2024-01-07T15:04:23;102819.63;;;0.46;100.00
29941;BME280;16801;53.562;10.038;2024-01-07T15:07:44;102820.38;;;0.54;100.00
29941;BME280;16801;53.562;10.038;2024-01-07T15:11:05;102823.88;;;0.56;100.00
29941;BME280;16801;53.562;10.038;2024-01-07T15:14:27;102821.56;;;0.37;100.00
29941;BME280;16801;53.562;10.038;2024-01-07T15:17:48;102833.13;;;0.33;100.00
29941;BME280;16801;53.562;10.038;2024-01-07T15:21:12;102836.72;;;0.27;100.00
29941;BME280;16801;53.562;10.038;2024-01-07T15:24:32;102831.75;;;0.06;100.00
29941;BME280;16801;53.562;10.038;2024-01-07T15:27:53;102835.34;;;0.00;100.00
29941;BME280;16801;53.562;10.038;2024-01-07T15:31:14;102839.09;;;-0.13;100.00
29941;BME280;16801;53.562;10.038;2024-01-07T15:34:35;102842.75;;;-0.21;100.00
29941;BME280;16801;53.562;10.038;2024-01-07T15:37:58;102834.88;;;-0.27;100.00
29941;BME280;16801;53.562;10.038;2024-01-07T15:41:19;102842.69;;;-0.18;100.00
29941;BME280;16801;53.562;10.038;2024-01-07T15:44:40;102847.19;;;-0.25;100.00
29941;BME280;16801;53.562;10.038;2024-01-07T15:48:00;102846.31;;;-0.27;100.00
29941;BME280;16801;53.562;10.038;2024-01-07T15:51:22;102842.78;;;-0.26;100.00
29941;BME280;16801;53.562;10.038;2024-01-07T15:54:44;102847.03;;;-0.13;100.00
29941;BME280;16801;53.562;10.038;2024-01-07T15:58:05;102838.38;;;-0.27;100.00
29941;BME280;16801;53.562;10.038;2024-01-07T16:01:26;102851.75;;;-0.37;100.00
29941;BME280;16801;53.562;10.038;2024-01-07T16:04:47;102857.06;;;-0.36;100.00
29941;BME280;16801;53.562;10.038;2024-01-07T16:08:08;102853.47;;;-0.33;100.00
29941;BME280;16801;53.562;10.038;2024-01-07T16:11:30;102854.34;;;-0.33;100.00
29941;BME280;16801;53.562;10.038;2024-01-07T16:14:51;102854.47;;;-0.40;100.00
29941;BME280;16801;53.562;10.038;2024-01-07T16:18:12;102857.19;;;-0.49;100.00
29941;BME280;16801;53.562;10.038;2024-01-07T16:21:32;102865.09;;;-0.45;100.00
29941;BME280;16801;53.562;10.038;2024-01-07T16:24:53;102863.09;;;-0.26;100.00
29941;BME280;16801;53.562;10.038;2024-01-07T16:28:16;102877.09;;;-0.15;100.00
29941;BME280;16801;53.562;10.038;2024-01-07T16:31:37;102873.47;;;-0.07;100.00
29941;BME280;16801;53.562;10.038;2024-01-07T16:34:58;102873.47;;;-0.08;100.00
29941;BME280;16801;53.562;10.038;2024-01-07T16:38:19;102884.78;;;0.05;100.00
29941;BME280;16801;53.562;10.038;2024-01-07T16:41:40;102883.09;;;-0.01;100.00
29941;BME280;16801;53.562;10.038;2024-01-07T16:45:03;102883.13;;;-0.03;100.00
29941;BME280;16801;53.562;10.038;2024-01-07T16:48:23;102886.56;;;0.03;100.00
29941;BME280;16801;53.562;10.038;2024-01-07T16:51:44;102892.13;;;-0.16;100.00
29941;BME280;16801;53.562;10.038;2024-01-07T16:55:06;102893.72;;;-0.04;100.00
29941;BME280;16801;53.562;10.038;2024-01-07T16:58:28;102895.38;;;0.05;100.00
29941;BME280;16801;53.562;10.038;2024-01-07T17:01:50;102898.13;;;-0.02;100.00
29941;BME280;16801;53.562;10.038;2024-01-07T17:05:11;102892.88;;;-0.06;100.00
29941;BME280;16801;53.562;10.038;2024-01-07T17:08:32;102898.09;;;0.02;100.00
29941;BME280;16801;53.562;10.038;2024-01-07T17:11:54;102902.41;;;0.09;100.00
29941;BME280;16801;53.562;10.038;2024-01-07T17:15:15;102893.69;;;0.02;100.00
29941;BME280;16801;53.562;10.038;2024-01-07T17:18:37;102899.84;;;0.01;100.00
29941;BME280;16801;53.562;10.038;2024-01-07T17:21:58;102904.31;;;-0.04;100.00